Time;durP1;ratioP1;P1;durP2;ratioP2;P2;SDS_P1;SDS_P2;PMS_P1;PMS_P2;Temp;Humidity;BMP_temperature;BMP_pressure;BME280_temperature;BME280_humidity;BME280_pressure;Samples;Min_cycle;Max_cycle;Signal;HPM_P1;HPM_P2
2021/09/11 00:01:48;;;;;;;12.52;10.90;;;17.60;83.80;;;;;;5052612;28;20108;-75
2021/09/11 00:04:14;;;;;;;12.82;10.50;;;17.60;84.00;;;;;;5054870;28;20033;-75
2021/09/11 00:06:39;;;;;;;13.80;10.95;;;17.60;84.00;;;;;;5053400;28;20021;-74
2021/09/11 00:09:06;;;;;;;13.32;10.50;;;17.70;83.90;;;;;;5074804;28;20060;-77
2021/09/11 00:11:32;;;;;;;12.57;10.32;;;17.70;83.80;;;;;;5074529;28;20112;-75
2021/09/11 00:13:58;;;;;;;13.70;10.75;;;17.70;83.80;;;;;;5056135;28;20093;-75
2021/09/11 00:16:23;;;;;;;13.50;11.13;;;17.70;83.80;;;;;;5053792;28;20117;-75
2021/09/11 00:18:49;;;;;;;11.88;9.63;;;17.70;83.70;;;;;;5053808;28;20029;-75
2021/09/11 00:21:14;;;;;;;10.98;9.88;;;17.70;83.40;;;;;;5053444;28;20068;-74
2021/09/11 00:23:40;;;;;;;11.82;10.55;;;17.80;83.20;;;;;;5053474;28;20377;-74
2021/09/11 00:26:06;;;;;;;11.63;10.38;;;17.80;83.00;;;;;;5053476;28;20060;-75
2021/09/11 00:28:31;;;;;;;11.35;10.18;;;17.80;83.00;;;;;;5053395;28;20473;-75
2021/09/11 00:30:57;;;;;;;11.68;10.45;;;17.80;83.00;;;;;;5053434;28;20469;-76
2021/09/11 00:33:23;;;;;;;12.57;10.25;;;17.80;82.90;;;;;;5053138;28;20029;-75
2021/09/11 00:35:48;;;;;;;13.98;9.57;;;17.80;83.00;;;;;;5053070;28;20041;-75
2021/09/11 00:38:14;;;;;;;11.63;9.30;;;17.80;82.90;;;;;;5053466;28;20036;-76
2021/09/11 00:40:40;;;;;;;11.52;10.25;;;17.90;82.80;;;;;;5053096;28;20032;-75
2021/09/11 00:43:05;;;;;;;11.38;9.73;;;17.90;82.80;;;;;;5053240;28;20393;-76
2021/09/11 00:45:31;;;;;;;11.07;9.90;;;17.90;82.50;;;;;;5052946;28;20384;-76
2021/09/11 00:47:56;;;;;;;13.27;11.10;;;17.90;82.50;;;;;;5052972;28;20021;-75
2021/09/11 00:50:23;;;;;;;11.43;9.27;;;17.80;82.30;;;;;;5052942;28;20355;-76
2021/09/11 00:52:49;;;;;;;11.75;9.73;;;17.80;82.40;;;;;;5053053;28;20037;-76
2021/09/11 00:55:16;;;;;;;11.30;9.35;;;17.80;82.30;;;;;;5052916;28;20013;-75
2021/09/11 00:57:44;;;;;;;13.75;9.73;;;17.80;82.30;;;;;;5052838;28;20067;-76
2021/09/11 01:00:11;;;;;;;12.77;9.68;;;17.80;82.20;;;;;;5052876;28;20025;-77
2021/09/11 01:02:36;;;;;;;12.20;9.82;;;17.80;82.20;;;;;;5052826;28;20029;-76
2021/09/11 01:05:05;;;;;;;11.20;9.20;;;17.80;82.10;;;;;;5052857;28;20025;-75
2021/09/11 01:07:31;;;;;;;12.38;9.52;;;17.80;82.00;;;;;;5052868;28;20055;-74
2021/09/11 01:09:58;;;;;;;10.45;8.90;;;17.80;81.70;;;;;;5052778;28;20021;-76
2021/09/11 01:12:26;;;;;;;10.65;9.27;;;17.80;81.10;;;;;;5052710;28;20040;-77
2021/09/11 01:14:51;;;;;;;11.95;10.32;;;17.70;81.60;;;;;;5052809;28;20028;-77
2021/09/11 01:17:17;;;;;;;11.70;9.45;;;17.70;81.90;;;;;;5051240;28;20072;-76
2021/09/11 01:19:43;;;;;;;10.15;8.95;;;17.70;82.40;;;;;;5052795;28;20032;-77
2021/09/11 01:22:16;;;;;;;10.55;8.85;;;17.60;82.10;;;;;;5052687;28;20497;-77
2021/09/11 01:25:03;;;;;;;12.02;9.25;;;17.60;82.00;;;;;;5052566;28;20171;-74
2021/09/11 01:27:31;;;;;;;10.38;9.20;;;17.60;81.80;;;;;;5054288;28;20032;-75
2021/09/11 01:30:02;;;;;;;10.77;9.55;;;17.60;81.70;;;;;;5056693;28;20484;-74
2021/09/11 01:32:30;;;;;;;11.45;9.60;;;17.50;82.00;;;;;;5056349;28;20025;-75
2021/09/11 01:34:55;;;;;;;10.50;9.15;;;17.50;82.30;;;;;;5056540;28;20120;-74
2021/09/11 01:37:21;;;;;;;11.18;8.43;;;17.50;82.10;;;;;;5056557;28;20049;-74
2021/09/11 01:39:48;;;;;;;11.30;8.65;;;17.50;82.10;;;;;;5056452;28;20439;-74
2021/09/11 01:42:22;;;;;;;10.20;9.18;;;17.50;81.80;;;;;;5056397;28;20124;-74
2021/09/11 01:44:50;;;;;;;9.85;8.45;;;17.50;82.00;;;;;;5056622;28;20108;-74
2021/09/11 01:47:16;;;;;;;10.43;8.60;;;17.60;81.80;;;;;;5056315;28;20030;-74
2021/09/11 01:49:42;;;;;;;10.07;8.73;;;17.60;81.80;;;;;;5056334;28;20040;-74
2021/09/11 01:52:09;;;;;;;11.07;8.27;;;17.60;81.10;;;;;;5056378;28;20029;-74
2021/09/11 01:54:36;;;;;;;9.38;8.35;;;17.60;80.90;;;;;;5056196;28;20116;-74
2021/09/11 01:57:02;;;;;;;9.30;8.07;;;17.60;80.90;;;;;;5056240;28;20025;-74
2021/09/11 01:59:27;;;;;;;9.32;7.60;;;17.60;81.00;;;;;;5056161;28;20028;-74
2021/09/11 02:01:53;;;;;;;8.75;7.32;;;17.60;81.20;;;;;;5056339;28;20021;-74
2021/09/11 02:04:18;;;;;;;9.48;7.47;;;17.70;81.10;;;;;;5055982;28;20409;-74
2021/09/11 02:06:44;;;;;;;8.23;6.30;;;17.70;80.80;;;;;;5056190;28;20465;-74
2021/09/11 02:09:11;;;;;;;7.15;6.45;;;17.70;80.40;;;;;;5057021;28;20505;-75
2021/09/11 02:11:36;;;;;;;7.00;6.25;;;17.70;80.20;;;;;;5056347;28;20017;-74
2021/09/11 02:14:03;;;;;;;6.45;5.85;;;17.80;80.10;;;;;;5055968;28;20397;-74
2021/09/11 02:16:28;;;;;;;8.00;6.97;;;17.80;80.10;;;;;;5055832;28;20021;-74
2021/09/11 02:18:54;;;;;;;6.68;5.97;;;17.80;80.30;;;;;;5056069;28;20507;-74
2021/09/11 02:21:19;;;;;;;6.47;5.45;;;17.80;79.10;;;;;;5055849;28;20551;-74
2021/09/11 02:23:45;;;;;;;6.25;4.88;;;17.80;79.20;;;;;;5055776;28;20102;-75
2021/09/11 02:26:11;;;;;;;4.70;4.13;;;17.80;78.70;;;;;;5055640;28;20040;-74
2021/09/11 02:28:37;;;;;;;5.15;4.10;;;17.80;78.50;;;;;;5055620;28;20235;-74
2021/09/11 02:31:02;;;;;;;5.15;3.67;;;17.70;78.30;;;;;;5055750;28;20485;-74
2021/09/11 02:33:28;;;;;;;3.83;3.03;;;17.70;78.40;;;;;;5055633;28;20052;-73
2021/09/11 02:35:53;;;;;;;4.25;3.40;;;17.70;78.40;;;;;;5055404;28;20070;-74
2021/09/11 02:38:19;;;;;;;3.55;3.22;;;17.60;79.20;;;;;;5054810;28;20091;-74
2021/09/11 02:40:44;;;;;;;4.32;3.28;;;17.50;80.90;;;;;;5055401;28;20025;-76
2021/09/11 02:43:10;;;;;;;3.63;3.30;;;17.30;82.60;;;;;;5055513;28;20051;-74
2021/09/11 02:45:35;;;;;;;3.58;3.28;;;17.10;84.50;;;;;;5055271;28;20061;-73
2021/09/11 02:48:01;;;;;;;5.18;3.88;;;17.00;84.90;;;;;;5055458;28;20044;-74
2021/09/11 02:50:26;;;;;;;4.38;3.90;;;16.90;86.50;;;;;;5055194;28;20516;-74
2021/09/11 02:52:52;;;;;;;5.05;3.75;;;16.80;86.80;;;;;;5055147;28;20060;-74
2021/09/11 02:55:17;;;;;;;4.30;3.90;;;16.80;86.90;;;;;;5055280;28;20481;-74
2021/09/11 02:57:43;;;;;;;4.45;3.50;;;16.80;87.40;;;;;;5055251;28;20029;-74
2021/09/11 03:00:09;;;;;;;4.35;3.63;;;16.80;87.20;;;;;;5055051;28;20017;-74
2021/09/11 03:02:35;;;;;;;6.07;3.63;;;16.90;87.50;;;;;;5054936;28;20125;-74
2021/09/11 03:05:00;;;;;;;3.38;3.08;;;16.90;87.70;;;;;;5054981;28;20450;-74
2021/09/11 03:07:26;;;;;;;3.47;3.17;;;16.90;87.80;;;;;;5054880;28;20114;-74
2021/09/11 03:09:51;;;;;;;3.47;3.17;;;17.00;87.80;;;;;;5055067;28;20032;-74
2021/09/11 03:12:17;;;;;;;3.72;3.05;;;17.00;87.90;;;;;;5054747;28;20035;-74
2021/09/11 03:14:42;;;;;;;2.72;2.53;;;17.00;87.80;;;;;;5054940;28;20104;-75
2021/09/11 03:17:08;;;;;;;3.92;2.83;;;17.10;87.90;;;;;;5054794;28;20037;-75
2021/09/11 03:19:33;;;;;;;4.25;3.28;;;17.10;87.80;;;;;;5054454;28;20095;-75
2021/09/11 03:21:59;;;;;;;3.78;3.38;;;17.10;88.10;;;;;;5054548;28;20087;-74
2021/09/11 03:24:24;;;;;;;4.53;3.70;;;17.10;88.90;;;;;;5054365;28;20029;-75
2021/09/11 03:26:50;;;;;;;5.13;3.42;;;17.10;89.30;;;;;;5054505;28;20028;-75
2021/09/11 03:29:16;;;;;;;4.18;3.60;;;17.10;89.40;;;;;;5054351;28;20029;-75
2021/09/11 03:31:42;;;;;;;4.10;3.45;;;17.10;89.40;;;;;;5054356;28;20044;-75
2021/09/11 03:34:08;;;;;;;3.67;3.33;;;17.10;89.40;;;;;;5054327;28;20116;-75
2021/09/11 03:36:33;;;;;;;3.20;2.90;;;17.10;89.20;;;;;;5054148;28;20088;-74
2021/09/11 03:38:59;;;;;;;3.17;2.88;;;17.00;89.10;;;;;;5054296;28;20055;-74
2021/09/11 03:41:24;;;;;;;3.92;3.17;;;17.00;89.10;;;;;;5054105;28;20025;-75
2021/09/11 03:43:50;;;;;;;3.13;2.60;;;17.00;89.20;;;;;;5054079;28;20051;-76
2021/09/11 03:46:15;;;;;;;5.78;3.13;;;17.00;89.20;;;;;;5053926;28;20508;-75
2021/09/11 03:48:41;;;;;;;2.88;2.67;;;17.00;89.40;;;;;;5053998;28;20250;-75
2021/09/11 03:51:08;;;;;;;2.70;2.50;;;17.10;89.40;;;;;;5054031;28;20025;-75
2021/09/11 03:53:34;;;;;;;3.42;2.80;;;17.00;89.30;;;;;;5053714;28;20098;-74
2021/09/11 03:55:59;;;;;;;3.28;2.70;;;17.00;89.30;;;;;;5053861;28;20468;-75
2021/09/11 03:58:25;;;;;;;2.80;2.53;;;17.00;89.20;;;;;;5053868;28;20485;-75
2021/09/11 04:00:51;;;;;;;2.83;2.47;;;17.00;89.20;;;;;;5053836;28;20021;-74
2021/09/11 04:03:16;;;;;;;3.42;2.47;;;17.00;89.50;;;;;;5053733;28;20020;-75
2021/09/11 04:05:42;;;;;;;3.95;3.10;;;17.00;89.40;;;;;;5053850;28;20060;-75
2021/09/11 04:08:07;;;;;;;3.50;2.97;;;17.00;89.60;;;;;;5053772;28;20488;-75
2021/09/11 04:10:33;;;;;;;3.53;2.83;;;17.00;89.40;;;;;;5053663;28;20104;-74
2021/09/11 04:12:59;;;;;;;2.85;2.50;;;17.00;89.40;;;;;;5053588;28;20036;-74
2021/09/11 04:15:24;;;;;;;3.00;2.50;;;17.00;89.60;;;;;;5053482;28;20021;-74
2021/09/11 04:17:50;;;;;;;3.38;2.55;;;17.00;89.40;;;;;;5053587;28;20033;-74
2021/09/11 04:20:15;;;;;;;3.22;2.72;;;17.00;89.30;;;;;;5053495;28;20103;-74
2021/09/11 04:22:41;;;;;;;3.60;2.88;;;17.00;89.50;;;;;;5053506;28;20029;-74
2021/09/11 04:25:07;;;;;;;3.00;2.70;;;17.10;89.50;;;;;;5053366;28;20016;-74
2021/09/11 04:27:33;;;;;;;4.35;3.15;;;17.00;89.40;;;;;;5053310;28;20021;-73
2021/09/11 04:29:58;;;;;;;3.17;2.63;;;17.00;89.50;;;;;;5053397;28;20028;-73
2021/09/11 04:32:24;;;;;;;5.47;2.72;;;17.00;89.70;;;;;;5053235;28;20127;-73
2021/09/11 04:34:49;;;;;;;4.00;2.13;;;17.00;89.70;;;;;;5053264;28;20128;-73
2021/09/11 04:37:15;;;;;;;2.50;2.30;;;17.00;89.90;;;;;;5052950;28;20381;-73
2021/09/11 04:39:41;;;;;;;3.42;2.67;;;17.00;89.90;;;;;;5053165;28;20029;-73
2021/09/11 04:42:07;;;;;;;3.83;3.25;;;16.90;90.00;;;;;;5052611;28;20045;-74
2021/09/11 04:44:32;;;;;;;3.63;3.00;;;16.90;90.40;;;;;;5053177;28;20025;-73
2021/09/11 04:46:58;;;;;;;3.35;2.90;;;16.90;90.60;;;;;;5053208;28;20102;-74
2021/09/11 04:49:23;;;;;;;4.82;3.22;;;16.90;90.60;;;;;;5053166;28;20031;-73
2021/09/11 04:51:49;;;;;;;3.92;2.55;;;16.90;90.80;;;;;;5053074;28;20025;-73
2021/09/11 04:54:14;;;;;;;3.53;2.67;;;16.80;90.80;;;;;;5053202;28;20033;-74
2021/09/11 04:56:40;;;;;;;3.97;2.80;;;16.80;90.70;;;;;;5053287;28;20021;-73
2021/09/11 04:59:05;;;;;;;3.00;2.70;;;16.80;90.80;;;;;;5053241;28;20025;-73
2021/09/11 05:01:31;;;;;;;3.58;2.47;;;16.80;90.50;;;;;;5052709;28;20066;-74
2021/09/11 05:03:57;;;;;;;3.95;3.03;;;16.70;90.60;;;;;;5053204;28;20381;-76
2021/09/11 05:06:22;;;;;;;3.10;2.78;;;16.80;90.90;;;;;;5053105;28;20029;-76
2021/09/11 05:08:48;;;;;;;3.30;2.65;;;16.80;90.90;;;;;;5053094;28;20017;-76
2021/09/11 05:11:13;;;;;;;6.78;2.95;;;16.80;90.90;;;;;;5053086;28;20029;-76
2021/09/11 05:13:39;;;;;;;3.75;2.88;;;16.70;91.00;;;;;;5052903;28;20032;-77
2021/09/11 05:16:04;;;;;;;3.85;3.28;;;16.70;91.10;;;;;;5051750;28;20021;-76
2021/09/11 05:18:32;;;;;;;6.05;4.10;;;16.80;91.10;;;;;;5052973;28;20477;-76
2021/09/11 05:21:03;;;;;;;6.00;3.75;;;16.80;91.00;;;;;;5052969;28;20029;-76
2021/09/11 05:23:28;;;;;;;11.15;3.65;;;16.80;91.00;;;;;;5052928;28;20465;-76
2021/09/11 05:25:54;;;;;;;6.28;3.70;;;16.80;90.70;;;;;;5052884;28;20086;-76
2021/09/11 05:28:19;;;;;;;3.70;2.50;;;16.80;90.70;;;;;;5052841;28;20071;-76
2021/09/11 05:30:45;;;;;;;3.65;2.60;;;16.80;90.80;;;;;;5052859;28;20067;-76
2021/09/11 05:33:10;;;;;;;3.17;2.50;;;16.80;91.10;;;;;;5052607;28;20390;-76
2021/09/11 05:35:36;;;;;;;2.95;2.40;;;16.80;91.10;;;;;;5052500;28;20045;-76
2021/09/11 05:38:01;;;;;;;3.00;2.55;;;16.80;91.00;;;;;;5052758;28;20033;-77
2021/09/11 05:40:27;;;;;;;2.45;2.22;;;16.90;91.10;;;;;;5052547;28;20021;-76
2021/09/11 05:42:52;;;;;;;3.10;2.50;;;16.90;90.90;;;;;;5052504;28;20025;-76
2021/09/11 05:45:18;;;;;;;2.33;2.08;;;16.90;91.00;;;;;;5049805;28;20032;-77
2021/09/11 05:47:43;;;;;;;2.65;2.20;;;17.00;90.80;;;;;;5051776;28;20021;-77
2021/09/11 05:50:10;;;;;;;2.53;2.17;;;17.00;90.70;;;;;;5049480;28;20017;-77
2021/09/11 05:52:36;;;;;;;3.65;2.63;;;17.10;90.50;;;;;;5052029;28;20025;-76
2021/09/11 05:55:02;;;;;;;4.13;2.28;;;17.10;90.30;;;;;;5052171;28;20036;-76
2021/09/11 05:57:27;;;;;;;2.90;2.08;;;17.20;90.20;;;;;;5052048;28;20029;-77
2021/09/11 05:59:55;;;;;;;4.25;2.53;;;17.20;90.10;;;;;;5052085;28;20033;-76
2021/09/11 06:02:21;;;;;;;3.33;2.22;;;17.20;90.00;;;;;;5052401;28;20028;-76
2021/09/11 06:04:46;;;;;;;2.75;2.53;;;17.30;89.80;;;;;;5052228;28;20388;-75
2021/09/11 06:07:12;;;;;;;4.03;2.50;;;17.30;89.60;;;;;;5052172;28;20029;-76
2021/09/11 06:09:38;;;;;;;3.88;2.28;;;17.30;89.40;;;;;;5052182;28;20032;-76
2021/09/11 06:12:05;;;;;;;3.08;2.58;;;17.30;89.40;;;;;;5052574;28;20064;-76
2021/09/11 06:14:30;;;;;;;5.32;2.58;;;17.30;89.30;;;;;;5054172;28;20033;-76
2021/09/11 06:16:56;;;;;;;3.53;2.88;;;17.30;89.10;;;;;;5056451;28;20104;-77
2021/09/11 06:19:21;;;;;;;3.20;2.53;;;17.30;89.10;;;;;;5059605;28;20115;-77
2021/09/11 06:21:47;;;;;;;3.65;2.58;;;17.30;89.00;;;;;;5060062;28;20068;-77
2021/09/11 06:24:12;;;;;;;2.47;2.28;;;17.30;89.30;;;;;;5057729;28;20033;-79
2021/09/11 06:26:38;;;;;;;4.88;2.90;;;17.30;89.50;;;;;;5060064;28;20028;-77
2021/09/11 06:29:03;;;;;;;4.18;2.45;;;17.30;89.60;;;;;;5061338;28;20533;-76
2021/09/11 06:31:29;;;;;;;2.50;2.20;;;17.30;89.70;;;;;;5062692;28;20046;-77
2021/09/11 06:33:55;;;;;;;3.03;2.22;;;17.30;89.70;;;;;;5063277;28;20039;-76
2021/09/11 06:36:20;;;;;;;2.80;2.17;;;17.30;89.50;;;;;;5062197;28;20081;-76
2021/09/11 06:38:46;;;;;;;3.17;2.75;;;17.40;89.30;;;;;;5063850;28;20033;-75
2021/09/11 06:41:11;;;;;;;3.53;2.30;;;17.40;89.10;;;;;;5061742;28;20025;-76
2021/09/11 06:43:37;;;;;;;2.90;2.40;;;17.40;89.00;;;;;;5058211;28;20029;-76
2021/09/11 06:46:02;;;;;;;2.88;2.40;;;17.40;88.90;;;;;;5055872;28;20527;-75
2021/09/11 06:48:28;;;;;;;4.10;3.00;;;17.40;88.80;;;;;;5056324;28;20033;-76
2021/09/11 06:50:54;;;;;;;3.95;2.55;;;17.50;89.20;;;;;;5055046;28;20032;-74
2021/09/11 06:53:19;;;;;;;5.82;2.85;;;17.50;89.00;;;;;;5054860;28;20048;-73
2021/09/11 06:55:45;;;;;;;5.13;3.30;;;17.60;88.90;;;;;;5055021;28;20021;-74
2021/09/11 06:58:10;;;;;;;3.72;2.75;;;17.80;88.90;;;;;;5055058;28;20029;-74
2021/09/11 07:00:36;;;;;;;2.45;2.25;;;17.80;88.80;;;;;;5054690;28;20049;-75
2021/09/11 07:03:02;;;;;;;5.00;2.72;;;17.90;88.40;;;;;;5054574;28;20096;-74
2021/09/11 07:05:27;;;;;;;4.32;3.03;;;17.90;88.00;;;;;;5054733;28;20021;-73
2021/09/11 07:07:53;;;;;;;4.47;2.70;;;18.00;88.30;;;;;;5055165;28;20033;-75
2021/09/11 07:10:18;;;;;;;7.03;3.13;;;18.10;88.30;;;;;;5054565;28;20469;-75
2021/09/11 07:12:44;;;;;;;4.75;2.97;;;18.30;87.80;;;;;;5054235;28;20037;-76
2021/09/11 07:15:10;;;;;;;5.15;2.67;;;18.60;86.40;;;;;;5054681;28;20162;-76
2021/09/11 07:17:35;;;;;;;3.72;2.28;;;18.90;85.20;;;;;;5054449;28;20032;-75
2021/09/11 07:20:01;;;;;;;7.70;2.63;;;19.00;84.30;;;;;;5054473;28;20021;-74
2021/09/11 07:22:27;;;;;;;5.07;2.40;;;19.30;83.60;;;;;;5054344;28;20036;-77
2021/09/11 07:24:52;;;;;;;3.78;2.10;;;19.40;82.80;;;;;;5053934;28;20021;-76
2021/09/11 07:27:18;;;;;;;4.88;2.38;;;19.60;82.00;;;;;;5054147;28;20033;-75
2021/09/11 07:29:43;;;;;;;3.80;2.10;;;19.60;81.30;;;;;;5054393;28;20025;-75
2021/09/11 07:32:09;;;;;;;2.47;2.17;;;19.70;80.90;;;;;;5054218;28;20024;-77
2021/09/11 07:34:35;;;;;;;2.67;2.17;;;19.80;80.20;;;;;;5054038;28;20041;-76
2021/09/11 07:37:00;;;;;;;2.30;2.00;;;20.00;79.60;;;;;;5055599;28;20500;-74
2021/09/11 07:39:26;;;;;;;2.58;1.92;;;20.20;78.80;;;;;;5054109;28;20028;-74
2021/09/11 07:41:51;;;;;;;2.47;2.28;;;20.30;78.40;;;;;;5054071;28;20017;-77
2021/09/11 07:44:17;;;;;;;2.65;2.13;;;20.30;77.10;;;;;;5053845;28;20025;-74
2021/09/11 07:46:42;;;;;;;2.25;1.88;;;20.40;76.60;;;;;;5054129;28;20059;-77
2021/09/11 07:49:08;;;;;;;2.47;1.65;;;20.60;75.60;;;;;;5053839;28;20078;-75
2021/09/11 07:51:33;;;;;;;3.03;1.70;;;20.80;75.20;;;;;;5053556;28;20056;-75
2021/09/11 07:54:00;;;;;;;2.15;1.80;;;20.90;74.20;;;;;;5053670;28;20142;-75
2021/09/11 07:56:26;;;;;;;2.67;2.35;;;21.00;73.30;;;;;;5053450;28;20017;-74
2021/09/11 07:58:52;;;;;;;2.17;1.98;;;21.00;73.90;;;;;;5053514;28;20066;-75
2021/09/11 08:01:17;;;;;;;3.30;2.10;;;20.90;72.60;;;;;;5053530;28;20024;-75
2021/09/11 08:03:43;;;;;;;3.45;2.15;;;20.80;72.70;;;;;;5053781;28;20021;-75
2021/09/11 08:06:08;;;;;;;1.75;1.63;;;20.70;72.00;;;;;;5053522;28;20441;-76
2021/09/11 08:08:37;;;;;;;2.75;1.90;;;20.60;72.10;;;;;;5053122;28;20029;-76
2021/09/11 08:11:06;;;;;;;4.18;2.00;;;20.60;73.10;;;;;;5053392;28;20025;-76
2021/09/11 08:13:32;;;;;;;4.15;2.03;;;20.80;74.30;;;;;;5053007;28;20469;-75
2021/09/11 08:15:57;;;;;;;2.80;1.92;;;20.80;73.00;;;;;;5051855;28;20032;-75
2021/09/11 08:18:24;;;;;;;2.03;1.85;;;20.90;72.00;;;;;;5053265;28;20029;-77
2021/09/11 08:20:53;;;;;;;2.55;1.95;;;21.10;71.20;;;;;;5053187;28;20163;-76
2021/09/11 08:23:34;;;;;;;3.45;2.00;;;21.30;70.70;;;;;;5053256;28;20017;-82
2021/09/11 08:26:02;;;;;;;3.97;2.05;;;21.40;69.70;;;;;;5053137;28;20040;-76
2021/09/11 08:28:27;;;;;;;5.28;2.00;;;21.60;69.00;;;;;;5053214;28;20027;-75
2021/09/11 08:30:53;;;;;;;2.28;2.05;;;21.80;68.30;;;;;;5053135;28;20382;-77
2021/09/11 08:33:18;;;;;;;2.45;2.00;;;21.80;68.90;;;;;;5052998;28;20033;-77
2021/09/11 08:35:44;;;;;;;2.63;2.03;;;21.60;67.70;;;;;;5052917;28;20051;-81
2021/09/11 08:38:09;;;;;;;5.63;2.10;;;21.50;67.20;;;;;;5051105;28;20056;-78
2021/09/11 08:41:06;;;;;;;5.07;2.15;;;21.30;70.30;;;;;;5052874;28;20423;-81
2021/09/11 08:43:31;;;;;;;;;;;21.10;69.20;;;;;;5053371;28;20106;-77
2021/09/11 08:45:57;;;;;;;2.17;1.70;;;21.20;69.30;;;;;;5052984;28;19905;-74
2021/09/11 08:48:24;;;;;;;3.92;2.30;;;21.50;69.10;;;;;;5052857;28;20108;-77
2021/09/11 08:50:53;;;;;;;4.85;1.75;;;21.70;68.60;;;;;;5051556;28;20021;-76
2021/09/11 08:53:19;;;;;;;3.03;2.25;;;21.80;68.50;;;;;;5052623;28;20037;-75
2021/09/11 08:55:44;;;;;;;3.40;2.10;;;21.80;66.90;;;;;;5052651;28;20032;-75
2021/09/11 08:58:10;;;;;;;3.25;2.00;;;21.90;66.40;;;;;;5052772;28;20033;-77
2021/09/11 09:00:44;;;;;;;2.08;1.80;;;21.80;65.70;;;;;;5053039;28;20025;-76
2021/09/11 09:03:43;;;;;;;3.40;2.03;;;21.70;66.70;;;;;;5052941;28;20469;-77
2021/09/11 09:06:13;;;;;;;4.25;1.90;;;21.70;66.40;;;;;;5030308;28;20029;-77
2021/09/11 09:08:40;;;;;;;2.10;1.50;;;21.60;65.10;;;;;;5052694;28;20018;-74
2021/09/11 09:11:20;;;;;;;3.42;2.50;;;21.40;65.70;;;;;;5052725;28;20028;-74
2021/09/11 09:13:51;;;;;;;2.72;2.15;;;21.40;67.10;;;;;;5052424;28;20556;-78
2021/09/11 09:16:17;;;;;;;2.20;1.95;;;21.40;65.20;;;;;;5052592;28;20017;-76
2021/09/11 09:18:42;;;;;;;2.63;2.00;;;21.50;66.10;;;;;;5052681;28;20470;-79
2021/09/11 09:21:22;;;;;;;4.25;2.10;;;21.60;64.20;;;;;;5052555;28;20546;-76
2021/09/11 09:23:50;;;;;;;4.05;2.22;;;21.80;63.60;;;;;;5052637;28;20033;-76
2021/09/11 09:26:16;;;;;;;4.68;2.53;;;21.90;63.70;;;;;;5051666;28;20473;-75
2021/09/11 09:29:01;;;;;;;4.40;2.30;;;22.10;63.40;;;;;;5052648;28;20028;-75
2021/09/11 09:31:27;;;;;;;2.57;1.87;;;22.30;62.90;;;;;;5052638;28;20021;-77
2021/09/11 09:33:52;;;;;;;2.58;2.03;;;22.20;63.10;;;;;;5052197;28;20318;-75
2021/09/11 09:36:18;;;;;;;3.33;2.03;;;22.30;64.00;;;;;;5052286;28;20049;-76
2021/09/11 09:38:44;;;;;;;3.05;1.70;;;22.50;63.40;;;;;;5052614;28;20083;-76
2021/09/11 09:41:13;;;;;;;2.00;1.70;;;22.70;63.20;;;;;;5052470;28;20032;-77
2021/09/11 09:43:45;;;;;;;2.42;1.58;;;22.70;61.80;;;;;;5052372;28;20162;-76
2021/09/11 09:46:18;;;;;;;3.17;1.80;;;23.20;62.00;;;;;;5052274;28;20021;-75
2021/09/11 09:48:45;;;;;;;2.88;1.50;;;23.60;59.70;;;;;;5054449;28;20025;-79
2021/09/11 09:51:18;;;;;;;2.90;1.67;;;24.00;59.70;;;;;;5054931;28;20471;-78
2021/09/11 09:53:46;;;;;;;1.40;1.30;;;23.80;57.20;;;;;;5056197;28;20393;-80
2021/09/11 09:56:12;;;;;;;1.38;1.23;;;24.00;58.20;;;;;;5056123;28;20032;-80
2021/09/11 09:58:38;;;;;;;3.10;1.60;;;23.90;58.30;;;;;;5055847;28;20029;-76
2021/09/11 10:01:05;;;;;;;1.88;1.40;;;23.90;58.30;;;;;;5056384;28;20074;-79
2021/09/11 10:03:31;;;;;;;3.45;1.77;;;23.70;57.40;;;;;;5055743;28;20426;-76
2021/09/11 10:06:21;;;;;;;1.95;1.40;;;23.30;57.80;;;;;;5056473;28;20021;-81
2021/09/11 10:08:51;;;;;;;1.33;1.23;;;23.10;59.10;;;;;;5056169;28;20071;-79
2021/09/11 10:11:17;;;;;;;2.25;1.92;;;23.40;58.50;;;;;;5056094;28;20017;-80
2021/09/11 10:14:13;;;;;;;3.28;2.00;;;23.80;58.70;;;;;;5055866;28;20048;-79
2021/09/11 10:16:41;;;;;;;3.17;1.73;;;23.90;58.80;;;;;;5055734;28;20059;-78
2021/09/11 10:19:19;;;;;;;2.00;1.80;;;23.70;57.20;;;;;;5055676;28;20102;-80
2021/09/11 10:21:48;;;;;;;4.45;1.70;;;24.00;56.50;;;;;;5055867;28;20036;-81
2021/09/11 10:24:23;;;;;;;2.03;1.63;;;24.20;54.40;;;;;;5055556;28;20024;-80
2021/09/11 10:26:50;;;;;;;;;;;24.50;54.40;;;;;;5056109;28;20032;-78
2021/09/11 10:29:37;;;;;;;3.55;1.48;;;25.00;53.80;;;;;;5055725;28;19904;-78
2021/09/11 10:32:17;;;;;;;2.75;1.40;;;25.40;50.40;;;;;;5055545;28;20055;-78
2021/09/11 10:35:04;;;;;;;3.45;1.20;;;25.40;50.60;;;;;;5055430;28;20123;-76
2021/09/11 10:37:37;;;;;;;1.38;1.10;;;25.70;47.90;;;;;;5056071;28;20035;-80
2021/09/11 10:40:24;;;;;;;1.85;1.10;;;25.60;45.90;;;;;;5055681;28;20083;-82
2021/09/11 10:43:04;;;;;;;1.65;1.30;;;25.20;45.70;;;;;;5055917;28;20040;-81
2021/09/11 10:45:57;;;;;;;1.10;1.02;;;25.30;47.50;;;;;;5055419;28;20021;-82
2021/09/11 10:48:31;;;;;;;1.70;1.15;;;25.60;47.00;;;;;;5055444;28;20029;-80
2021/09/11 10:51:03;;;;;;;2.08;1.27;;;26.00;47.30;;;;;;5063295;28;20029;-81
2021/09/11 10:53:29;;;;;;;2.17;1.25;;;26.40;46.20;;;;;;5056985;28;20029;-82
2021/09/11 10:55:54;;;;;;;1.10;1.00;;;26.80;45.40;;;;;;5055151;28;20063;-80
2021/09/11 10:58:26;;;;;;;1.52;1.30;;;26.70;44.40;;;;;;5055020;28;20036;-79
2021/09/11 11:00:58;;;;;;;3.03;1.65;;;26.80;44.70;;;;;;5054435;28;20491;-80
2021/09/11 11:03:24;;;;;;;1.92;1.10;;;27.00;43.90;;;;;;5054958;28;20083;-85
2021/09/11 11:06:04;;;;;;;1.55;0.93;;;26.90;41.30;;;;;;5055033;28;20041;-80
2021/09/11 11:08:31;;;;;;;1.20;1.10;;;26.40;44.50;;;;;;5054691;28;20028;-77
2021/09/11 11:10:57;;;;;;;2.83;1.35;;;26.30;46.20;;;;;;5054777;28;20025;-77
2021/09/11 11:13:23;;;;;;;1.55;1.23;;;26.00;47.50;;;;;;5054637;28;20483;-78
2021/09/11 11:15:54;;;;;;;4.05;1.50;;;25.60;48.80;;;;;;5054452;28;20056;-78
2021/09/11 11:18:19;;;;;;;2.35;1.85;;;24.50;53.90;;;;;;5054578;28;20356;-77
2021/09/11 11:20:45;;;;;;;3.35;1.40;;;23.50;59.80;;;;;;5054725;28;20029;-77
2021/09/11 11:23:11;;;;;;;3.15;1.83;;;22.50;64.80;;;;;;5054365;28;20100;-75
2021/09/11 11:25:39;;;;;;;5.05;2.70;;;21.80;68.80;;;;;;5054570;28;20021;-75
2021/09/11 11:28:06;;;;;;;3.95;1.92;;;21.40;70.80;;;;;;5054276;28;20098;-76
2021/09/11 11:30:35;;;;;;;2.63;1.60;;;21.10;74.20;;;;;;5054390;28;20511;-77
2021/09/11 11:33:01;;;;;;;2.42;1.63;;;21.00;74.40;;;;;;5054887;28;20040;-78
2021/09/11 11:35:28;;;;;;;2.90;1.38;;;21.20;74.70;;;;;;5056056;28;20170;-78
2021/09/11 11:37:53;;;;;;;3.95;1.88;;;21.20;75.10;;;;;;5053872;28;20550;-78
2021/09/11 11:40:19;;;;;;;4.35;1.75;;;21.40;74.80;;;;;;5054088;28;20111;-77
2021/09/11 11:42:45;;;;;;;3.72;2.22;;;21.40;74.80;;;;;;5053967;28;20020;-78
2021/09/11 11:45:14;;;;;;;2.33;1.27;;;21.40;75.10;;;;;;5053765;28;20111;-77
2021/09/11 11:48:05;;;;;;;2.33;1.35;;;21.40;76.10;;;;;;5053852;28;20039;-80
2021/09/11 11:50:36;;;;;;;3.80;1.70;;;21.30;75.50;;;;;;5053893;28;20373;-77
2021/09/11 11:53:09;;;;;;;1.50;1.15;;;21.20;75.60;;;;;;5052404;28;20043;-76
2021/09/11 11:55:39;;;;;;;2.80;1.50;;;21.10;74.50;;;;;;5053513;28;20154;-76
2021/09/11 11:58:12;;;;;;;2.78;1.52;;;20.90;73.70;;;;;;5053774;28;20043;-77
2021/09/11 12:00:46;;;;;;;2.40;1.50;;;20.80;74.50;;;;;;5052211;28;20373;-77
2021/09/11 12:03:33;;;;;;;2.53;1.75;;;20.80;74.90;;;;;;5053523;28;20111;-77
2021/09/11 12:06:03;;;;;;;2.20;1.60;;;20.90;75.10;;;;;;5053458;28;20388;-77
2021/09/11 12:08:29;;;;;;;1.77;1.50;;;21.00;75.60;;;;;;5052078;28;20032;-77
2021/09/11 12:10:56;;;;;;;2.65;1.50;;;21.10;75.00;;;;;;5052852;28;20029;-77
2021/09/11 12:13:22;;;;;;;5.85;2.78;;;21.20;75.10;;;;;;5052893;28;20389;-77
2021/09/11 12:15:49;;;;;;;3.63;1.92;;;21.40;75.80;;;;;;5053236;28;20032;-77
2021/09/11 12:18:16;;;;;;;5.43;2.63;;;21.50;76.00;;;;;;5053151;28;20029;-78
2021/09/11 12:20:50;;;;;;;3.25;2.08;;;21.50;76.00;;;;;;5053274;28;20148;-76
2021/09/11 12:23:19;;;;;;;2.42;1.77;;;21.60;75.60;;;;;;5053413;28;20107;-77
2021/09/11 12:26:05;;;;;;;6.85;2.05;;;21.80;75.10;;;;;;5053402;28;20017;-78
2021/09/11 12:28:41;;;;;;;5.57;2.50;;;21.90;74.70;;;;;;5053275;28;20032;-78
2021/09/11 12:31:20;;;;;;;4.40;2.03;;;22.00;74.10;;;;;;5053601;28;20035;-76
2021/09/11 12:33:50;;;;;;;2.88;1.60;;;22.20;74.80;;;;;;5053332;28;20040;-76
2021/09/11 12:36:36;;;;;;;4.07;1.58;;;22.40;73.40;;;;;;5053117;28;20505;-76
2021/09/11 12:39:26;;;;;;;6.47;2.47;;;22.60;72.40;;;;;;5052859;28;20032;-77
2021/09/11 12:41:54;;;;;;;3.85;1.98;;;22.90;71.90;;;;;;5048137;28;20112;-77
2021/09/11 12:44:21;;;;;;;4.93;2.20;;;23.50;70.90;;;;;;5053074;28;20028;-77
2021/09/11 12:46:55;;;;;;;10.10;4.70;;;24.30;70.10;;;;;;5053205;28;20465;-77
2021/09/11 12:49:25;;;;;;;6.25;2.47;;;24.80;66.00;;;;;;5052779;28;20028;-77